Wesley Chapel, FL (33545)

11:59 AM EST on February 22, 2017 (GMT -0500)
Williams Acres | | Change Station

Elev 88 ft 28.26 °N, 82.34 °W | Updated 9 seconds ago

Rain
Rain
68.0 °F
Feels Like 68.0 °F
N
1.3
Wind Variable Wind from East
Gusts 4.0 mph

Today
High -- | Low -- °F
--% Chance of Precip.
Yesterday
High -- | Low -- °F
Precip. -- in
Pressure 29.73 in
Visibility 10.0 miles
Clouds Scattered Clouds 3400 ft
Scattered Clouds 5000 ft
Mostly Cloudy 11000 ft
Dew Point 68 °F
Humidity 99%
Rainfall 0.07 in
Snow Depth Not available.
7:00 AM 6:25 PM
Waning Crescent, 16% visible
METAR KZPH 221655Z AUTO 12012G18KT 10SM SCT034 SCT050 BKN110 20/19 A2973 RMK AO2 T02000188
Pressure 29.73 in
Visibility 10.0 miles
Clouds Scattered Clouds 3400 ft
Scattered Clouds 5000 ft
Mostly Cloudy 11000 ft
Dew Point 68 °F
Humidity 99%
Rainfall 0.07 in
Snow Depth Not available.
7:00 AM 6:25 PM
Waning Crescent, 16% visible
METAR KZPH 221655Z AUTO 12012G18KT 10SM SCT034 SCT050 BKN110 20/19 A2973 RMK AO2 T02000188

Get Your Daily Forecast Email!

Thanks for signing up!

Be on the lookout for a verification email in your inbox.

You'll start receiving the daily forecast at 8 AM.

×

10-Day Weather Forecast

Almanac

Astronomy

Feb. 22, 2017 Rise Set
Actual Time
Civil Twilight
Nautical Twilight
Astronomical Twilight
Moon
Length of Visible Light
Length of Day
Tomorrow will be .
, % of the Moon is Illuminated

Today's Extremes

State Highs State Lows

Community

WunderPhotos

Upload Photos

1,962,540 photos uploaded!

WunderBlog® & News

Nearby

Air Quality

  Air Quality AQ Index Pollutant
Not available.

Snow Depth

Station Depth Elevation

Earthquake Activity

City Distance Mag. Time & Date
Minimum magnitude displayed is 2.5.

Coastal Water Temperatures

Place Temperature

Stations

Nearby Weather Stations

Station Location Temp. Windchill Dew Point Humidity Wind Precip. Elev Updated Type
                   

Watches & Warnings

There are currently no watches in effect.